createdAt,value
2018-09-25T00:00:01.461Z,3.2
2018-09-25T00:00:30.884Z,3.2
2018-09-25T00:01:00.296Z,3.3
2018-09-25T00:01:29.679Z,3.3
2018-09-25T00:01:59.042Z,2.9
2018-09-25T00:02:28.392Z,3.2
2018-09-25T00:02:57.799Z,3
2018-09-25T00:03:27.126Z,3.3
2018-09-25T00:03:56.643Z,3.1
2018-09-25T00:04:26.073Z,3.6
2018-09-25T00:04:55.464Z,3.6
2018-09-25T00:05:24.934Z,3.2
2018-09-25T00:05:54.376Z,3.4
2018-09-25T00:06:23.746Z,3.4
2018-09-25T00:06:53.140Z,3.6
2018-09-25T00:07:22.507Z,3.2
2018-09-25T00:07:51.885Z,3.4
2018-09-25T00:08:21.286Z,3.3
2018-09-25T00:08:50.662Z,3.4
2018-09-25T00:09:20.080Z,3
2018-09-25T00:09:49.511Z,3.2
2018-09-25T00:10:19.011Z,3.3
2018-09-25T00:10:49.421Z,3
2018-09-25T00:11:19.841Z,3.3
2018-09-25T00:11:49.222Z,3.4
2018-09-25T00:12:18.651Z,3.4
2018-09-25T00:12:48.040Z,3.3
2018-09-25T00:13:17.417Z,3.4
2018-09-25T00:13:46.909Z,5.6
2018-09-25T00:14:16.283Z,4.2
2018-09-25T00:14:45.683Z,3.8
2018-09-25T00:15:15.192Z,5.5
2018-09-25T00:15:44.664Z,4.7
2018-09-25T00:16:14.048Z,4.3
2018-09-25T00:16:43.439Z,3.5
2018-09-25T00:17:12.855Z,3.9
2018-09-25T00:17:42.233Z,3.6
2018-09-25T00:18:11.610Z,3.5
2018-09-25T00:18:41.021Z,6.5
2018-09-25T00:19:10.545Z,5.4
2018-09-25T00:19:39.918Z,3.9
2018-09-25T00:20:09.307Z,3.6
2018-09-25T00:20:38.674Z,3.5
2018-09-25T00:21:08.154Z,6.5
2018-09-25T00:21:37.575Z,3.9
2018-09-25T00:22:06.976Z,3.5
2018-09-25T00:22:37.787Z,3.7
2018-09-25T00:23:09.431Z,3.6
2018-09-25T00:23:42.558Z,3.2
2018-09-25T00:24:13.495Z,3.3
2018-09-25T00:24:43.570Z,3.2
2018-09-25T00:25:13.133Z,3.5
2018-09-25T00:25:42.755Z,3.4
2018-09-25T00:26:12.503Z,3.3
2018-09-25T00:26:41.876Z,3.2
2018-09-25T00:27:11.480Z,3.5
2018-09-25T00:27:40.986Z,3.5
2018-09-25T00:28:10.289Z,3.3
2018-09-25T00:28:39.753Z,3.4
2018-09-25T00:29:09.433Z,3.4
2018-09-25T00:29:39.065Z,3.3
2018-09-25T00:30:08.759Z,3
2018-09-25T00:30:38.129Z,3.5
2018-09-25T00:31:07.704Z,3.2
2018-09-25T00:31:37.351Z,3
2018-09-25T00:32:06.901Z,3.3
2018-09-25T00:32:36.752Z,3
2018-09-25T00:33:06.078Z,3.5
2018-09-25T00:33:35.639Z,3.2
2018-09-25T00:34:05.377Z,3.2
2018-09-25T00:34:35.004Z,3.3
2018-09-25T00:35:04.463Z,3.3
2018-09-25T00:35:34.006Z,3.3
2018-09-25T00:36:03.812Z,3.4
2018-09-25T00:36:33.864Z,3.4
2018-09-25T00:37:03.307Z,3.3
2018-09-25T00:37:32.991Z,3.5
2018-09-25T00:38:02.498Z,3.6
2018-09-25T00:38:32.122Z,3.3
2018-09-25T00:39:01.772Z,3.6
2018-09-25T00:39:31.244Z,3.4
2018-09-25T00:40:00.624Z,3.2
2018-09-25T00:40:30.008Z,3.3
2018-09-25T00:40:59.374Z,3.2
2018-09-25T00:41:28.943Z,3.3
2018-09-25T00:41:58.335Z,3.4
2018-09-25T00:42:27.839Z,3.6
2018-09-25T00:42:57.228Z,3.7
2018-09-25T00:43:26.902Z,3.4
2018-09-25T00:43:58.515Z,3.4
2018-09-25T00:44:31.270Z,3.5
2018-09-25T00:45:02.134Z,3.8
2018-09-25T00:45:31.935Z,3.2
2018-09-25T00:46:01.579Z,3.2
2018-09-25T00:46:31.279Z,3.2
2018-09-25T00:47:00.862Z,3.4
2018-09-25T00:47:31.449Z,3.3
2018-09-25T00:48:01.058Z,3.4
2018-09-25T00:48:31.231Z,3.1
2018-09-25T00:49:00.583Z,3.3
2018-09-25T00:49:30.057Z,3.4
2018-09-25T00:49:59.420Z,3.6
2018-09-25T00:50:29.771Z,3.2
2018-09-25T00:50:59.143Z,3.4
2018-09-25T00:51:28.938Z,3.2
2018-09-25T00:51:58.296Z,3.4
2018-09-25T00:52:27.866Z,3.5
2018-09-25T00:52:57.510Z,3.2
2018-09-25T00:53:27.449Z,3.3
2018-09-25T00:53:57.435Z,3.4
2018-09-25T00:54:27.447Z,3.6
2018-09-25T00:54:57.245Z,3.3
2018-09-25T00:55:26.759Z,3.4
2018-09-25T00:55:56.884Z,3.4
2018-09-25T00:56:26.550Z,3.3
2018-09-25T00:56:56.324Z,3.7
2018-09-25T00:57:26.088Z,3.5
2018-09-25T00:57:55.480Z,3.7
2018-09-25T00:58:24.891Z,3.5
2018-09-25T00:58:54.553Z,3.4
2018-09-25T00:59:24.376Z,3.8
2018-09-25T00:59:54.319Z,3.2
2018-09-25T01:00:23.778Z,3.4
2018-09-25T01:00:53.657Z,3.7
2018-09-25T01:01:23.190Z,3.5
2018-09-25T01:01:52.878Z,3.6
2018-09-25T01:02:22.470Z,3.6
2018-09-25T01:02:52.492Z,3.4
2018-09-25T01:03:22.326Z,3.3
2018-09-25T01:03:51.746Z,3.8
2018-09-25T01:04:21.490Z,3
2018-09-25T01:04:50.856Z,3.4
2018-09-25T01:05:20.234Z,3.5
2018-09-25T01:05:49.628Z,3.5
2018-09-25T01:06:18.980Z,3.3
2018-09-25T01:06:48.410Z,3.4
2018-09-25T01:07:17.836Z,3.4
2018-09-25T01:07:47.173Z,3.1
2018-09-25T01:08:16.556Z,3.4
2018-09-25T01:08:47.776Z,3.6
2018-09-25T01:09:20.271Z,3.5
2018-09-25T01:09:50.383Z,3.4
2018-09-25T01:10:20.161Z,3.4
2018-09-25T01:10:50.191Z,3.2
2018-09-25T01:11:19.737Z,3.3
2018-09-25T01:11:49.229Z,3.6
2018-09-25T01:12:18.822Z,3.7
2018-09-25T01:12:48.425Z,3.4
2018-09-25T01:13:18.067Z,3.3
2018-09-25T01:13:47.797Z,3.3
2018-09-25T01:14:17.283Z,3.3
2018-09-25T01:14:46.928Z,3.6
2018-09-25T01:15:16.565Z,3.6
2018-09-25T01:15:46.403Z,3.4
2018-09-25T01:16:15.936Z,3.5
2018-09-25T01:16:45.398Z,3.5
2018-09-25T01:17:15.059Z,3.7
2018-09-25T01:17:44.619Z,3.4
2018-09-25T01:18:14.104Z,3.4
2018-09-25T01:18:43.798Z,3.3
2018-09-25T01:19:13.252Z,3.4
2018-09-25T01:19:42.830Z,3.2
2018-09-25T01:20:12.408Z,3.4
2018-09-25T01:20:41.828Z,3.4
2018-09-25T01:21:11.252Z,3.5
2018-09-25T01:21:41.413Z,3.4
2018-09-25T01:22:10.988Z,3.2
2018-09-25T01:22:40.904Z,3.6
2018-09-25T01:23:10.366Z,3.7
2018-09-25T01:23:39.986Z,3.6
2018-09-25T01:24:09.437Z,3.9
2018-09-25T01:24:39.310Z,3.4
2018-09-25T01:25:08.955Z,3.3
2018-09-25T01:25:38.892Z,3.7
2018-09-25T01:26:09.309Z,3.9
2018-09-25T01:26:38.821Z,3.6
2018-09-25T01:27:08.347Z,3.5
2018-09-25T01:27:37.754Z,3.5
2018-09-25T01:28:07.128Z,4.4
2018-09-25T01:28:37.497Z,4.2
2018-09-25T01:29:06.887Z,3.6
2018-09-25T01:29:36.365Z,3.5
2018-09-25T01:30:05.751Z,3.6
2018-09-25T01:30:35.186Z,4
2018-09-25T01:31:06.351Z,4
2018-09-25T01:31:39.158Z,4.3
2018-09-25T01:32:10.603Z,5.4
2018-09-25T01:32:40.208Z,9
2018-09-25T01:33:09.876Z,5.1
2018-09-25T01:33:39.428Z,3.9
2018-09-25T01:34:09.204Z,4.3
2018-09-25T01:34:38.770Z,3.3
2018-09-25T01:35:08.468Z,3.5
2018-09-25T01:35:38.565Z,3.4
2018-09-25T01:36:07.941Z,3.5
2018-09-25T01:36:37.558Z,3.9
2018-09-25T01:37:07.227Z,3.5
2018-09-25T01:37:36.988Z,3.3
2018-09-25T01:38:06.837Z,3.6
2018-09-25T01:38:36.667Z,3.6
2018-09-25T01:39:06.597Z,3.4
2018-09-25T01:39:35.973Z,3.3
2018-09-25T01:40:06.545Z,3.3
2018-09-25T01:40:35.940Z,3.3
2018-09-25T01:41:05.437Z,3.7
2018-09-25T01:41:35.022Z,3.4
2018-09-25T01:42:04.820Z,3.4
2018-09-25T01:42:34.605Z,3.7
2018-09-25T01:43:04.261Z,3.5
2018-09-25T01:43:34.024Z,3.3
2018-09-25T01:44:03.912Z,3.4
2018-09-25T01:44:33.464Z,3.4
2018-09-25T01:45:03.209Z,3.4
2018-09-25T01:45:32.678Z,3.4
2018-09-25T01:46:02.486Z,3.2
2018-09-25T01:46:32.187Z,3.3
2018-09-25T01:47:01.991Z,3.1
2018-09-25T01:47:32.533Z,3.2
2018-09-25T01:48:02.441Z,3.4
2018-09-25T01:48:32.000Z,3.1
2018-09-25T01:49:01.628Z,3.4
2018-09-25T01:49:31.146Z,3.3
2018-09-25T01:50:00.553Z,3.3
2018-09-25T01:50:29.963Z,3.3
2018-09-25T01:50:59.314Z,3.1
2018-09-25T01:51:28.711Z,3.3
2018-09-25T01:51:58.074Z,3.3
2018-09-25T01:52:27.454Z,3.3
2018-09-25T01:52:56.893Z,3.1
2018-09-25T01:53:27.529Z,3.8
2018-09-25T01:53:59.395Z,3.3
2018-09-25T01:54:30.872Z,3.2
2018-09-25T01:55:00.478Z,3.3
2018-09-25T01:55:29.959Z,3
2018-09-25T01:55:59.673Z,3.2
2018-09-25T01:56:29.169Z,3.5
2018-09-25T01:56:58.892Z,3.3
2018-09-25T01:57:28.539Z,3.4
2018-09-25T01:57:58.150Z,3.4
2018-09-25T01:58:28.042Z,3.8
2018-09-25T01:58:57.612Z,3.5
2018-09-25T01:59:27.138Z,3.4
2018-09-25T01:59:56.745Z,3.3
2018-09-25T02:00:26.351Z,3.6
2018-09-25T02:00:56.048Z,3.4
2018-09-25T02:01:25.492Z,3.7
2018-09-25T02:01:55.072Z,3.3
2018-09-25T02:02:24.890Z,3.4
2018-09-25T02:02:54.392Z,3.3
2018-09-25T02:03:23.948Z,3.4
2018-09-25T02:03:53.609Z,3.2
2018-09-25T02:04:23.312Z,3.4
2018-09-25T02:04:53.008Z,3.3
2018-09-25T02:05:22.513Z,3.5
2018-09-25T02:05:52.124Z,3.4
2018-09-25T02:06:21.764Z,3.3
2018-09-25T02:06:51.436Z,3.4
2018-09-25T02:07:21.260Z,3.5
2018-09-25T02:07:50.681Z,3.3
2018-09-25T02:08:20.194Z,3.2
2018-09-25T02:08:49.927Z,3.2
2018-09-25T02:09:19.651Z,3.5
2018-09-25T02:09:49.452Z,3.2
2018-09-25T02:10:19.002Z,3.4
2018-09-25T02:10:48.791Z,3.1
2018-09-25T02:11:18.253Z,3.1
2018-09-25T02:11:47.616Z,3.4
2018-09-25T02:12:16.988Z,3.3
2018-09-25T02:12:46.352Z,3.4
2018-09-25T02:13:15.707Z,3.4
2018-09-25T02:13:45.130Z,3.2
2018-09-25T02:14:14.476Z,3.1
2018-09-25T02:14:43.850Z,3.2
2018-09-25T02:15:13.224Z,3.6
2018-09-25T02:15:44.751Z,3.4
2018-09-25T02:16:16.981Z,3.1
2018-09-25T02:16:47.453Z,3.3
2018-09-25T02:17:17.360Z,3.2
2018-09-25T02:17:46.728Z,3
2018-09-25T02:18:16.083Z,3
2018-09-25T02:18:45.496Z,3.6
2018-09-25T02:19:14.846Z,3.5
2018-09-25T02:19:44.208Z,3
2018-09-25T02:20:13.567Z,3.3
2018-09-25T02:20:42.947Z,3.2
2018-09-25T02:21:12.320Z,3.1
2018-09-25T02:21:41.686Z,3.4
2018-09-25T02:22:12.044Z,3.1
2018-09-25T02:22:41.459Z,3.3
2018-09-25T02:23:10.833Z,2.7
2018-09-25T02:23:40.282Z,3.6
2018-09-25T02:24:09.642Z,2.9
2018-09-25T02:24:39.012Z,3.2
2018-09-25T02:25:08.400Z,3.3
2018-09-25T02:25:37.841Z,3.5
2018-09-25T02:26:07.151Z,3.3
2018-09-25T02:26:36.550Z,3.5
2018-09-25T02:27:05.935Z,3.1
2018-09-25T02:27:35.292Z,3.5
2018-09-25T02:28:04.654Z,3.5
2018-09-25T02:28:34.023Z,3.3
2018-09-25T02:29:03.433Z,3.2
2018-09-25T02:29:32.813Z,3.1
2018-09-25T02:30:02.181Z,3.3
2018-09-25T02:30:31.545Z,3
2018-09-25T02:31:00.890Z,3
2018-09-25T02:31:30.246Z,3.1
2018-09-25T02:31:59.619Z,3.4
2018-09-25T02:32:28.981Z,3.1
2018-09-25T02:32:58.334Z,3.2
2018-09-25T02:33:28.690Z,3.2
2018-09-25T02:33:58.099Z,3.3
2018-09-25T02:34:27.450Z,3.3
2018-09-25T02:34:56.823Z,3.2
2018-09-25T02:35:26.193Z,3.2
2018-09-25T02:35:56.557Z,3.1
2018-09-25T02:36:25.903Z,3.5
2018-09-25T02:36:55.268Z,3.1
2018-09-25T02:37:24.644Z,3.3
2018-09-25T02:37:53.989Z,3.3
2018-09-25T02:38:23.344Z,3.2
2018-09-25T02:38:52.743Z,2.9
2018-09-25T02:39:22.157Z,3.2
2018-09-25T02:39:51.522Z,2.9
2018-09-25T02:40:20.884Z,3.3
2018-09-25T02:40:50.260Z,3.3
2018-09-25T02:41:19.642Z,3.3
2018-09-25T02:41:48.992Z,3.2
2018-09-25T02:42:18.352Z,3.3
2018-09-25T02:42:48.700Z,3.6
2018-09-25T02:43:18.063Z,3.2
2018-09-25T02:43:47.430Z,3.3
2018-09-25T02:44:16.843Z,3.2
2018-09-25T02:44:46.210Z,3.2
2018-09-25T02:45:15.569Z,3.3
2018-09-25T02:45:44.925Z,3.2
2018-09-25T02:46:14.287Z,3
2018-09-25T02:46:43.707Z,3
2018-09-25T02:47:13.044Z,3.1
2018-09-25T02:47:42.417Z,3
2018-09-25T02:48:11.780Z,3.2
2018-09-25T02:48:41.155Z,3.2
2018-09-25T02:49:10.521Z,3.1
2018-09-25T02:49:39.930Z,3.3
2018-09-25T02:50:09.302Z,3.2
2018-09-25T02:50:38.658Z,2.9
2018-09-25T02:51:08.012Z,3.1
2018-09-25T02:51:37.375Z,2.9
2018-09-25T02:52:06.729Z,3.3
2018-09-25T02:52:36.092Z,3
2018-09-25T02:53:05.466Z,3.3
2018-09-25T02:53:34.830Z,3.2
2018-09-25T02:54:04.192Z,3.3
2018-09-25T02:54:34.612Z,3
2018-09-25T02:55:03.972Z,3.3
2018-09-25T02:55:33.332Z,3
2018-09-25T02:56:02.687Z,3.5
2018-09-25T02:56:32.042Z,3.1
2018-09-25T02:57:01.456Z,3.3
2018-09-25T02:57:31.815Z,3.2
2018-09-25T02:58:01.170Z,3
2018-09-25T02:58:30.532Z,3.1
2018-09-25T02:58:59.965Z,2.9
2018-09-25T02:59:29.382Z,3.4
2018-09-25T02:59:58.832Z,3.3
2018-09-25T03:00:28.228Z,3.3
2018-09-25T03:00:57.660Z,3.5
2018-09-25T03:01:27.028Z,2.9
2018-09-25T03:01:56.395Z,3.2
2018-09-25T03:02:25.766Z,3
2018-09-25T03:02:55.123Z,3.1
2018-09-25T03:03:24.480Z,2.9
2018-09-25T03:03:53.829Z,3.2
2018-09-25T03:04:23.185Z,3.2
2018-09-25T03:04:52.543Z,3
2018-09-25T03:05:21.988Z,3.2
2018-09-25T03:05:51.360Z,2.9
2018-09-25T03:06:20.731Z,3.1
2018-09-25T03:06:50.094Z,3.1
2018-09-25T03:07:19.459Z,3.2
2018-09-25T03:07:48.821Z,2.8
2018-09-25T03:08:18.181Z,3.1
2018-09-25T03:08:47.549Z,3.2
2018-09-25T03:09:16.914Z,3.2
2018-09-25T03:09:46.301Z,3.1
2018-09-25T03:10:15.733Z,3.4
2018-09-25T03:10:45.148Z,2.8
2018-09-25T03:11:14.542Z,3.2
2018-09-25T03:11:43.942Z,3.3
2018-09-25T03:12:13.322Z,3.2
2018-09-25T03:12:42.688Z,2.9
2018-09-25T03:13:12.067Z,3.1
2018-09-25T03:13:41.447Z,3.2
2018-09-25T03:14:10.826Z,3
2018-09-25T03:14:40.191Z,3.1
2018-09-25T03:15:09.597Z,3.2
2018-09-25T03:15:39.017Z,3
2018-09-25T03:16:08.398Z,3
2018-09-25T03:16:37.768Z,2.9
2018-09-25T03:17:07.173Z,3.3
2018-09-25T03:17:36.579Z,3
2018-09-25T03:18:05.943Z,2.9
2018-09-25T03:18:35.324Z,3.1
2018-09-25T03:19:04.691Z,3.1
2018-09-25T03:19:34.049Z,3.3
2018-09-25T03:20:03.418Z,3.3
2018-09-25T03:20:32.852Z,3.4
2018-09-25T03:21:02.254Z,3.1
2018-09-25T03:21:31.616Z,3.1
2018-09-25T03:22:01.983Z,2.9
2018-09-25T03:22:31.342Z,3
2018-09-25T03:23:00.726Z,2.8
2018-09-25T03:23:30.100Z,3.3
2018-09-25T03:23:59.678Z,3.4
2018-09-25T03:24:28.887Z,2.9
2018-09-25T03:24:58.272Z,2.9
2018-09-25T03:25:27.681Z,3.3
2018-09-25T03:25:57.054Z,3
2018-09-25T03:26:26.425Z,3.4
2018-09-25T03:26:55.794Z,3.1
2018-09-25T03:27:25.187Z,3.3
2018-09-25T03:27:54.546Z,3
2018-09-25T03:28:23.921Z,3.1
2018-09-25T03:28:53.289Z,3.2
2018-09-25T03:29:22.673Z,3.4
2018-09-25T03:29:52.044Z,3.3
2018-09-25T03:30:21.416Z,3.6
2018-09-25T03:30:50.846Z,3
2018-09-25T03:31:20.203Z,3.3
2018-09-25T03:31:49.578Z,3.4
2018-09-25T03:32:18.956Z,3.3
2018-09-25T03:32:48.346Z,2.8
2018-09-25T03:33:17.725Z,3.2
2018-09-25T03:33:47.095Z,3.2
2018-09-25T03:34:16.468Z,3.2
2018-09-25T03:34:45.825Z,2.9
2018-09-25T03:35:15.204Z,3.1
2018-09-25T03:35:44.568Z,2.9
2018-09-25T03:36:13.970Z,3
2018-09-25T03:36:43.354Z,3.2
2018-09-25T03:37:12.721Z,3
2018-09-25T03:37:42.084Z,3
2018-09-25T03:38:11.453Z,3.1
2018-09-25T03:38:40.820Z,3.4
2018-09-25T03:39:10.202Z,3.1
2018-09-25T03:39:39.558Z,3.1
2018-09-25T03:40:08.935Z,3.2
2018-09-25T03:40:38.316Z,2.9
2018-09-25T03:41:07.740Z,3.2
2018-09-25T03:41:37.115Z,3.4
2018-09-25T03:42:06.486Z,3.1
2018-09-25T03:42:35.876Z,3
2018-09-25T03:43:05.259Z,3.2
2018-09-25T03:43:34.624Z,3.1
2018-09-25T03:44:03.993Z,3
2018-09-25T03:44:33.379Z,3.3
2018-09-25T03:45:02.779Z,3.1
2018-09-25T03:45:32.178Z,3.2
2018-09-25T03:46:01.547Z,3.3
2018-09-25T03:46:30.965Z,3.1
2018-09-25T03:47:00.342Z,3
2018-09-25T03:47:29.703Z,2.9
2018-09-25T03:47:59.098Z,3.2
2018-09-25T03:48:28.459Z,3
2018-09-25T03:48:57.843Z,3.2
2018-09-25T03:49:27.211Z,3.3
2018-09-25T03:49:56.586Z,2.8
2018-09-25T03:50:25.951Z,3
2018-09-25T03:50:55.321Z,3
2018-09-25T03:51:24.762Z,3.1
2018-09-25T03:51:54.147Z,3.3
2018-09-25T03:52:23.516Z,3
2018-09-25T03:52:52.878Z,3.1
2018-09-25T03:53:22.258Z,3.3
2018-09-25T03:53:51.623Z,3.3
2018-09-25T03:54:20.990Z,3.1
2018-09-25T03:54:50.357Z,3.3
2018-09-25T03:55:19.722Z,3.1
2018-09-25T03:55:49.087Z,3.3
2018-09-25T03:56:18.458Z,3.1
2018-09-25T03:56:47.888Z,3
2018-09-25T03:57:17.265Z,3.1
2018-09-25T03:57:46.663Z,3.1
2018-09-25T03:58:16.079Z,3
2018-09-25T03:58:45.434Z,2.9
2018-09-25T03:59:14.796Z,3.1
2018-09-25T03:59:44.225Z,3.1
2018-09-25T04:00:13.534Z,3.3
2018-09-25T04:00:42.919Z,3.3
2018-09-25T04:01:12.304Z,3.5
2018-09-25T04:01:41.726Z,3
2018-09-25T04:02:11.128Z,3.1
2018-09-25T04:02:40.527Z,3.6
2018-09-25T04:03:09.894Z,3.3
2018-09-25T04:03:39.264Z,3.3
2018-09-25T04:04:08.617Z,3.1
2018-09-25T04:04:37.997Z,3
2018-09-25T04:05:07.368Z,3.1
2018-09-25T04:05:36.754Z,3
2018-09-25T04:06:06.146Z,2.9
2018-09-25T04:06:36.533Z,3.2
2018-09-25T04:07:05.894Z,3.2
2018-09-25T04:07:35.278Z,3.1
2018-09-25T04:08:04.650Z,3.3
2018-09-25T04:08:34.030Z,2.8
2018-09-25T04:09:03.394Z,3.1
2018-09-25T04:09:32.772Z,3.1
2018-09-25T04:10:02.151Z,2.8
2018-09-25T04:10:31.521Z,3
2018-09-25T04:11:00.884Z,3
2018-09-25T04:11:30.257Z,3.1
2018-09-25T04:11:59.693Z,3.2
2018-09-25T04:12:29.053Z,3.2
2018-09-25T04:12:58.433Z,2.8
2018-09-25T04:13:27.800Z,3.1
2018-09-25T04:13:57.160Z,2.8
2018-09-25T04:14:26.524Z,3.1
2018-09-25T04:14:55.919Z,2.8
2018-09-25T04:15:25.352Z,3.2
2018-09-25T04:15:54.725Z,3.2
2018-09-25T04:16:24.100Z,3.4
2018-09-25T04:16:53.470Z,3.1
2018-09-25T04:17:22.897Z,3.2
2018-09-25T04:17:52.271Z,3.1
2018-09-25T04:18:21.645Z,2.9
2018-09-25T04:18:51.005Z,3.2
2018-09-25T04:19:20.384Z,3.4
2018-09-25T04:19:49.753Z,3
2018-09-25T04:20:19.142Z,3.2
2018-09-25T04:20:48.541Z,2.7
2018-09-25T04:21:17.898Z,2.9
2018-09-25T04:21:47.259Z,3.1
2018-09-25T04:22:16.689Z,3.1
2018-09-25T04:22:46.057Z,3.4
2018-09-25T04:23:15.413Z,2.9
2018-09-25T04:23:44.810Z,3
2018-09-25T04:24:14.199Z,3.2
2018-09-25T04:24:43.585Z,3.2
2018-09-25T04:25:13.974Z,2.9
2018-09-25T04:25:43.359Z,3.1
2018-09-25T04:26:12.731Z,3.3
2018-09-25T04:26:42.101Z,3.1
2018-09-25T04:27:11.528Z,2.8
2018-09-25T04:27:40.958Z,2.8
2018-09-25T04:28:10.319Z,3.2
2018-09-25T04:28:39.691Z,3.1
2018-09-25T04:29:09.045Z,3.6
2018-09-25T04:29:38.423Z,3.3
2018-09-25T04:30:07.807Z,3.3
2018-09-25T04:30:37.167Z,3.2
2018-09-25T04:31:06.533Z,3.2
2018-09-25T04:31:35.924Z,3.1
2018-09-25T04:32:05.300Z,3.2
2018-09-25T04:32:34.725Z,2.8
2018-09-25T04:33:04.095Z,3.3
2018-09-25T04:33:33.466Z,3.2
2018-09-25T04:34:02.837Z,3
2018-09-25T04:34:32.214Z,3
2018-09-25T04:35:01.593Z,3.1
2018-09-25T04:35:30.950Z,2.7
2018-09-25T04:36:00.394Z,3
2018-09-25T04:36:29.755Z,3.1
2018-09-25T04:36:59.129Z,3.1
2018-09-25T04:37:28.509Z,3.1
2018-09-25T04:37:57.923Z,3
2018-09-25T04:38:27.300Z,3.2
2018-09-25T04:38:56.738Z,3
2018-09-25T04:39:26.092Z,3
2018-09-25T04:39:55.468Z,3.1
2018-09-25T04:40:24.848Z,3.1
2018-09-25T04:40:55.213Z,3.2
2018-09-25T04:41:24.591Z,3
2018-09-25T04:41:53.958Z,3
2018-09-25T04:42:24.320Z,3.2
2018-09-25T04:42:53.750Z,3.1
2018-09-25T04:43:23.137Z,3.1
2018-09-25T04:43:52.526Z,3.1
2018-09-25T04:44:21.883Z,3.1
2018-09-25T04:44:51.275Z,3
2018-09-25T04:45:20.661Z,3.1
2018-09-25T04:45:50.067Z,2.9
2018-09-25T04:46:19.438Z,3.2
2018-09-25T04:46:48.861Z,3.3
2018-09-25T04:47:18.216Z,3.3
2018-09-25T04:47:47.627Z,3.2
2018-09-25T04:48:17.997Z,3.2
2018-09-25T04:48:47.419Z,2.9
2018-09-25T04:49:16.803Z,3.1
2018-09-25T04:49:46.177Z,2.9
2018-09-25T04:50:15.564Z,3.2
2018-09-25T04:50:44.939Z,3.1
2018-09-25T04:51:14.314Z,2.9
2018-09-25T04:51:43.671Z,3.3
2018-09-25T04:52:13.057Z,3.3
2018-09-25T04:52:42.412Z,3.2
2018-09-25T04:53:11.819Z,3
2018-09-25T04:53:41.180Z,3.2
2018-09-25T04:54:10.551Z,3.1
2018-09-25T04:54:39.909Z,3.6
2018-09-25T04:55:10.268Z,3.5
2018-09-25T04:55:39.639Z,3.5
2018-09-25T04:56:08.989Z,3.2
2018-09-25T04:56:38.355Z,3.4
2018-09-25T04:57:07.841Z,3.3
2018-09-25T04:57:37.132Z,3
2018-09-25T04:58:06.551Z,3.1
2018-09-25T04:58:35.924Z,3.2
2018-09-25T04:59:06.302Z,3.3
2018-09-25T04:59:35.731Z,3.4
2018-09-25T05:00:05.098Z,3
2018-09-25T05:00:34.487Z,3.1
2018-09-25T05:01:03.864Z,3.4
2018-09-25T05:01:33.251Z,3.5
2018-09-25T05:02:02.619Z,3
2018-09-25T05:02:32.004Z,3.1
2018-09-25T05:03:01.359Z,3.1
2018-09-25T05:03:30.848Z,3.9
2018-09-25T05:04:00.203Z,4.1
2018-09-25T05:04:29.582Z,3.7
2018-09-25T05:04:58.944Z,3.4
2018-09-25T05:05:28.342Z,3.1
2018-09-25T05:05:57.699Z,3.1
2018-09-25T05:06:27.091Z,3.3
2018-09-25T05:06:56.451Z,3.1
2018-09-25T05:07:25.829Z,2.8
2018-09-25T05:07:55.244Z,3.2
2018-09-25T05:08:24.606Z,3.1
2018-09-25T05:08:54.049Z,2.9
2018-09-25T05:09:23.427Z,3
2018-09-25T05:09:52.796Z,3.2
2018-09-25T05:10:22.169Z,3
2018-09-25T05:10:51.554Z,3.3
2018-09-25T05:11:20.917Z,3.1
2018-09-25T05:11:50.316Z,3
2018-09-25T05:12:19.722Z,2.9
2018-09-25T05:12:49.110Z,3.2
2018-09-25T05:13:18.481Z,3
2018-09-25T05:13:48.904Z,3.3
2018-09-25T05:14:18.284Z,3.1
2018-09-25T05:14:47.694Z,3.1
2018-09-25T05:15:17.006Z,3
2018-09-25T05:15:46.381Z,3.1
2018-09-25T05:16:15.769Z,3.3
2018-09-25T05:16:45.132Z,3
2018-09-25T05:17:14.504Z,3
2018-09-25T05:17:43.874Z,3.1
2018-09-25T05:18:13.336Z,2.7
2018-09-25T05:18:42.663Z,3.3
2018-09-25T05:19:12.032Z,3.2
2018-09-25T05:19:41.392Z,3.2
2018-09-25T05:20:10.780Z,3.2
2018-09-25T05:20:40.167Z,3.3
2018-09-25T05:21:09.543Z,3.2
2018-09-25T05:21:38.909Z,3.4
2018-09-25T05:22:08.303Z,3.3
2018-09-25T05:22:37.705Z,3.3
2018-09-25T05:23:07.074Z,3.2
2018-09-25T05:23:36.538Z,2.8
2018-09-25T05:24:05.854Z,3.2
2018-09-25T05:24:35.247Z,3.2
2018-09-25T05:25:04.675Z,2.9
2018-09-25T05:25:34.047Z,3
2018-09-25T05:26:03.449Z,2.9
2018-09-25T05:26:32.858Z,3
2018-09-25T05:27:02.219Z,3
2018-09-25T05:27:32.599Z,3.2
2018-09-25T05:28:01.970Z,3.1
2018-09-25T05:28:31.391Z,3.2
2018-09-25T05:29:00.850Z,3
2018-09-25T05:29:30.215Z,3
2018-09-25T05:29:59.579Z,3.1
2018-09-25T05:30:28.951Z,3.2
2018-09-25T05:30:58.321Z,2.8
2018-09-25T05:31:27.686Z,3
2018-09-25T05:31:57.042Z,2.8
2018-09-25T05:32:26.427Z,3.4
2018-09-25T05:32:56.793Z,3.1
2018-09-25T05:33:26.153Z,3
2018-09-25T05:33:55.533Z,3.2
2018-09-25T05:34:24.944Z,2.9
2018-09-25T05:34:54.298Z,2.9
2018-09-25T05:35:24.682Z,3
2018-09-25T05:35:54.068Z,3.1
2018-09-25T05:36:23.442Z,3.2
2018-09-25T05:36:52.831Z,3
2018-09-25T05:37:22.195Z,2.9
2018-09-25T05:37:51.573Z,3.1
2018-09-25T05:38:20.956Z,3.1
2018-09-25T05:38:50.331Z,3
2018-09-25T05:39:19.743Z,2.9
2018-09-25T05:39:49.116Z,3.3
2018-09-25T05:40:18.469Z,3.1
2018-09-25T05:40:47.848Z,3.3
2018-09-25T05:41:17.204Z,3
2018-09-25T05:41:46.568Z,3.3
2018-09-25T05:42:15.945Z,3.3
2018-09-25T05:42:45.323Z,2.9
2018-09-25T05:43:15.720Z,3
2018-09-25T05:43:45.080Z,2.9
2018-09-25T05:44:14.428Z,3
2018-09-25T05:44:43.837Z,3.1
2018-09-25T05:45:13.212Z,3
2018-09-25T05:45:42.579Z,2.9
2018-09-25T05:46:11.963Z,3.1
2018-09-25T05:46:41.350Z,3.2
2018-09-25T05:47:10.731Z,3.4
2018-09-25T05:47:40.107Z,3.3
2018-09-25T05:48:09.515Z,3.3
2018-09-25T05:48:39.057Z,3.1
2018-09-25T05:49:08.440Z,3.2
2018-09-25T05:49:37.899Z,3.3
2018-09-25T05:50:07.660Z,3.5
2018-09-25T05:50:37.122Z,3.4
2018-09-25T05:51:06.589Z,3.5
2018-09-25T05:51:35.951Z,3.4
2018-09-25T05:52:05.358Z,3.9
2018-09-25T05:52:34.725Z,3.4
2018-09-25T05:53:04.112Z,3.6
2018-09-25T05:53:33.467Z,3.5
2018-09-25T05:54:02.858Z,3.3
2018-09-25T05:54:32.257Z,3.4
2018-09-25T05:55:01.697Z,3.2
2018-09-25T05:55:31.090Z,3.2
2018-09-25T05:56:00.481Z,3.1
2018-09-25T05:56:29.891Z,3.2
2018-09-25T05:56:59.252Z,3.5
2018-09-25T05:57:28.652Z,3.5
2018-09-25T05:57:58.005Z,3.2
2018-09-25T05:58:27.353Z,3.3
2018-09-25T05:58:56.740Z,3.4
2018-09-25T05:59:26.122Z,3.2
2018-09-25T05:59:55.485Z,3.4
2018-09-25T06:00:24.925Z,3.5
2018-09-25T06:00:54.311Z,3.5
2018-09-25T06:01:23.678Z,3.5
2018-09-25T06:01:53.044Z,3.7
2018-09-25T06:02:22.415Z,3.4
2018-09-25T06:02:51.830Z,3.4
2018-09-25T06:03:21.187Z,3.6
2018-09-25T06:03:50.588Z,3.4
2018-09-25T06:04:19.968Z,3.6
2018-09-25T06:04:50.388Z,3.6
2018-09-25T06:05:19.814Z,3.7
2018-09-25T06:05:49.178Z,3.4
2018-09-25T06:06:18.577Z,3.4
2018-09-25T06:06:47.920Z,3.4
2018-09-25T06:07:17.333Z,3.7
2018-09-25T06:07:47.709Z,3.4
2018-09-25T06:08:17.097Z,3.5
2018-09-25T06:08:46.456Z,3.5
2018-09-25T06:09:15.834Z,3.4
2018-09-25T06:09:45.274Z,3.5
2018-09-25T06:10:14.636Z,3.4
2018-09-25T06:10:44.012Z,3.4
2018-09-25T06:11:13.384Z,3.2
2018-09-25T06:11:42.747Z,3.4
2018-09-25T06:12:12.150Z,3.4
2018-09-25T06:12:41.546Z,3
2018-09-25T06:13:10.960Z,3.3
2018-09-25T06:13:40.363Z,3.3
2018-09-25T06:14:09.741Z,3.4
2018-09-25T06:14:39.110Z,3.6
2018-09-25T06:15:08.526Z,3.4
2018-09-25T06:15:38.010Z,3.2
2018-09-25T06:16:08.242Z,3.2
2018-09-25T06:16:40.538Z,3.6
2018-09-25T06:17:09.886Z,3.4
2018-09-25T06:17:39.253Z,3.5
2018-09-25T06:18:08.633Z,3.4
2018-09-25T06:18:38.098Z,3.3
2018-09-25T06:19:07.544Z,3.2
2018-09-25T06:19:36.909Z,3.2
2018-09-25T06:20:06.282Z,3.5
2018-09-25T06:20:35.709Z,3.4
2018-09-25T06:21:05.100Z,3.4
2018-09-25T06:21:34.657Z,3.2
2018-09-25T06:22:04.038Z,3.3
2018-09-25T06:22:33.445Z,3.5
2018-09-25T06:23:02.852Z,3.9
2018-09-25T06:23:32.254Z,3.7
2018-09-25T06:24:01.628Z,3.6
2018-09-25T06:24:31.041Z,4.3
2018-09-25T06:25:00.410Z,4.1
2018-09-25T06:25:29.785Z,4.2
2018-09-25T06:25:59.232Z,3.9
2018-09-25T06:26:28.660Z,4.3
2018-09-25T06:26:58.065Z,3.9
2018-09-25T06:27:27.459Z,4.2
2018-09-25T06:27:56.868Z,3.9
2018-09-25T06:28:26.249Z,4.4
2018-09-25T06:28:55.635Z,4.8
2018-09-25T06:29:25.023Z,5.5
2018-09-25T06:29:55.226Z,4.7
2018-09-25T06:30:24.652Z,4
2018-09-25T06:30:54.423Z,4
2018-09-25T06:31:23.895Z,3.8
2018-09-25T06:31:53.304Z,3.8
2018-09-25T06:32:22.684Z,3.8
2018-09-25T06:32:52.049Z,4.1
2018-09-25T06:33:21.425Z,3.9
2018-09-25T06:33:50.820Z,4.1
2018-09-25T06:34:20.252Z,3.9
2018-09-25T06:34:49.663Z,3.9
2018-09-25T06:35:18.994Z,3.9
2018-09-25T06:35:48.425Z,4.3
2018-09-25T06:36:17.856Z,4
2018-09-25T06:36:47.235Z,4.2
2018-09-25T06:37:17.618Z,4.1
2018-09-25T06:37:46.997Z,3.9
2018-09-25T06:38:16.370Z,4
2018-09-25T06:38:45.792Z,3.7
2018-09-25T06:39:15.135Z,4.1
2018-09-25T06:39:44.494Z,4.1
2018-09-25T06:40:13.886Z,4.4
2018-09-25T06:40:43.291Z,4
2018-09-25T06:41:12.736Z,3.7
2018-09-25T06:41:42.093Z,3.8
2018-09-25T06:42:11.482Z,3.6
2018-09-25T06:42:40.817Z,3.4
2018-09-25T06:43:10.217Z,3.3
2018-09-25T06:43:39.575Z,3.6
2018-09-25T06:44:09.009Z,3.4
2018-09-25T06:44:38.392Z,3.2
2018-09-25T06:45:07.785Z,3.2
2018-09-25T06:45:37.187Z,3.5
2018-09-25T06:46:06.582Z,3.2
2018-09-25T06:46:36.045Z,3.5
2018-09-25T06:47:05.540Z,3.6
2018-09-25T06:47:35.831Z,3.2
2018-09-25T06:48:05.224Z,3.5
2018-09-25T06:48:34.632Z,3.5
2018-09-25T06:49:04.967Z,3.2
2018-09-25T06:49:34.334Z,3.3